TimeEDT,TemperatureF,Dew PointF,Humidity,Sea Level PressureIn,VisibilityMPH,Wind Direction,Wind SpeedMPH,Gust SpeedMPH,PrecipitationIn,Events,Conditions,WindDirDegrees,DateUTC
12:53 AM,63.0,63.0,100,30.10,6.0,Calm,Calm,-,N/A,,Clear,0,2012-10-05 04:53:00
1:53 AM,64.9,64.0,97,30.11,5.0,WNW,4.6,-,N/A,,Clear,290,2012-10-05 05:53:00
2:53 AM,64.0,63.0,96,30.10,5.0,WNW,4.6,-,N/A,,Clear,300,2012-10-05 06:53:00
3:53 AM,63.0,63.0,100,30.09,5.0,NW,4.6,-,N/A,,Clear,310,2012-10-05 07:53:00
4:53 AM,63.0,62.1,97,30.10,5.0,NW,4.6,-,N/A,,Clear,310,2012-10-05 08:53:00
5:53 AM,62.1,60.1,93,30.11,5.0,NW,4.6,-,N/A,,Clear,310,2012-10-05 09:53:00
6:53 AM,61.0,59.0,93,30.12,7.0,NW,5.8,-,N/A,,Clear,310,2012-10-05 10:53:00
7:53 AM,62.1,59.0,90,30.11,7.0,NW,4.6,-,N/A,,Clear,310,2012-10-05 11:53:00
8:53 AM,66.9,60.1,79,30.12,10.0,NW,5.8,-,N/A,,Clear,310,2012-10-05 12:53:00
9:53 AM,72.0,60.1,66,30.12,10.0,NW,6.9,-,N/A,,Clear,320,2012-10-05 13:53:00
10:53 AM,75.9,57.9,54,30.12,10.0,NNW,9.2,-,N/A,,Clear,340,2012-10-05 14:53:00
2:53 PM,75.0,60.1,60,30.04,10.0,SE,6.9,-,N/A,,Clear,130,2012-10-05 18:53:00
3:53 PM,75.0,61.0,62,30.03,10.0,SSE,3.5,-,N/A,,Clear,150,2012-10-05 19:53:00
4:53 PM,73.0,61.0,66,30.02,10.0,South,5.8,-,N/A,,Clear,170,2012-10-05 20:53:00
5:53 PM,72.0,61.0,68,30.02,10.0,Variable,4.6,-,N/A,,Clear,0,2012-10-05 21:53:00
6:53 PM,70.0,63.0,78,30.03,10.0,Variable,3.5,-,N/A,,Clear,0,2012-10-05 22:53:00
7:53 PM,70.0,64.0,81,30.03,10.0,SSW,6.9,-,N/A,,Clear,210,2012-10-05 23:53:00
9:53 PM,66.9,63.0,87,30.02,9.0,SW,3.5,-,N/A,,Clear,220,2012-10-06 01:53:00
10:53 PM,66.9,64.9,93,30.01,9.0,WSW,4.6,-,N/A,,Clear,240,2012-10-06 02:53:00
11:53 PM,63.0,63.0,100,30.00,8.0,SW,3.5,-,N/A,,Clear,230,2012-10-06 03:53:00